sensor_id;sensor_type;location;lat;lon;timestamp;pressure;altitude;pressure_sealevel;temperature;humidity
51249;BME280;39642;47.556;18.728;2023-02-10T00:01:51;101674.59;;;21.89;19.93
51249;BME280;39642;47.556;18.728;2023-02-10T00:04:17;101667.47;;;21.90;19.98
51249;BME280;39642;47.556;18.728;2023-02-10T00:06:43;101660.37;;;21.90;20.07
51249;BME280;39642;47.556;18.728;2023-02-10T00:09:12;101670.09;;;21.91;20.08
51249;BME280;39642;47.556;18.728;2023-02-10T00:11:39;101664.72;;;21.93;20.02
51249;BME280;39642;47.556;18.728;2023-02-10T00:14:26;101671.78;;;21.94;19.99
51249;BME280;39642;47.556;18.728;2023-02-10T00:16:52;101670.91;;;21.93;19.99
51249;BME280;39642;47.556;18.728;2023-02-10T00:19:20;101667.31;;;21.94;20.21
51249;BME280;39642;47.556;18.728;2023-02-10T00:21:46;101665.59;;;21.93;20.04
51249;BME280;39642;47.556;18.728;2023-02-10T00:24:12;101662.06;;;21.93;20.11
51249;BME280;39642;47.556;18.728;2023-02-10T00:26:38;101666.50;;;21.92;20.16
51249;BME280;39642;47.556;18.728;2023-02-10T00:29:04;101669.16;;;21.92;20.29
51249;BME280;39642;47.556;18.728;2023-02-10T00:31:30;101663.84;;;21.92;20.42
51249;BME280;39642;47.556;18.728;2023-02-10T00:33:56;101678.06;;;21.91;20.21
51249;BME280;39642;47.556;18.728;2023-02-10T00:36:22;101674.50;;;21.91;20.31
51249;BME280;39642;47.556;18.728;2023-02-10T00:38:50;101671.00;;;21.90;20.21
51249;BME280;39642;47.556;18.728;2023-02-10T00:41:19;101672.78;;;21.90;20.29
51249;BME280;39642;47.556;18.728;2023-02-10T00:43:45;101675.44;;;21.90;20.84
51249;BME280;39642;47.556;18.728;2023-02-10T00:46:12;101679.03;;;21.89;20.19
51249;BME280;39642;47.556;18.728;2023-02-10T00:48:38;101678.13;;;21.88;21.27
51249;BME280;39642;47.556;18.728;2023-02-10T00:51:04;101676.41;;;21.87;20.70
51249;BME280;39642;47.556;18.728;2023-02-10T00:53:31;101665.81;;;21.87;20.33
51249;BME280;39642;47.556;18.728;2023-02-10T00:55:57;101664.94;;;21.87;20.16
51249;BME280;39642;47.556;18.728;2023-02-10T00:58:23;101672.00;;;21.86;20.35
51249;BME280;39642;47.556;18.728;2023-02-10T01:00:49;101668.50;;;21.86;20.53
51249;BME280;39642;47.556;18.728;2023-02-10T01:03:15;101660.56;;;21.86;20.48
51249;BME280;39642;47.556;18.728;2023-02-10T01:05:42;101662.34;;;21.85;20.61
51249;BME280;39642;47.556;18.728;2023-02-10T01:08:08;101655.28;;;21.84;20.40
51249;BME280;39642;47.556;18.728;2023-02-10T01:10:34;101660.59;;;21.84;20.17
51249;BME280;39642;47.556;18.728;2023-02-10T01:13:02;101654.37;;;21.85;20.64
51249;BME280;39642;47.556;18.728;2023-02-10T01:15:28;101664.94;;;21.87;20.29
51249;BME280;39642;47.556;18.728;2023-02-10T01:17:54;101662.34;;;21.85;20.42
51249;BME280;39642;47.556;18.728;2023-02-10T01:20:20;101660.56;;;21.86;20.04
51249;BME280;39642;47.556;18.728;2023-02-10T01:22:46;101648.16;;;21.86;20.67
51249;BME280;39642;47.556;18.728;2023-02-10T01:25:12;101657.00;;;21.87;20.04
51249;BME280;39642;47.556;18.728;2023-02-10T01:27:38;101651.63;;;21.88;20.74
51249;BME280;39642;47.556;18.728;2023-02-10T01:30:04;101650.72;;;21.89;19.94
51249;BME280;39642;47.556;18.728;2023-02-10T01:32:30;101651.53;;;21.91;19.85
51249;BME280;39642;47.556;18.728;2023-02-10T01:34:56;101656.84;;;21.91;19.90
51249;BME280;39642;47.556;18.728;2023-02-10T01:37:22;101654.09;;;21.93;19.81
51249;BME280;39642;47.556;18.728;2023-02-10T01:39:48;101650.56;;;21.94;19.75
51249;BME280;39642;47.556;18.728;2023-02-10T01:42:15;101642.59;;;21.94;19.74
51249;BME280;39642;47.556;18.728;2023-02-10T01:47:07;101643.41;;;21.96;19.77
51249;BME280;39642;47.556;18.728;2023-02-10T01:49:38;101637.16;;;21.97;19.76
51249;BME280;39642;47.556;18.728;2023-02-10T01:52:19;101638.91;;;21.98;19.76
51249;BME280;39642;47.556;18.728;2023-02-10T01:54:53;101633.63;;;21.98;19.75
51249;BME280;39642;47.556;18.728;2023-02-10T01:57:20;101637.13;;;21.98;19.76
51249;BME280;39642;47.556;18.728;2023-02-10T01:59:47;101630.03;;;21.99;19.83
51249;BME280;39642;47.556;18.728;2023-02-10T02:02:13;101634.47;;;21.98;19.90
51249;BME280;39642;47.556;18.728;2023-02-10T02:04:52;101631.81;;;21.98;19.83
51249;BME280;39642;47.556;18.728;2023-02-10T02:07:22;101631.81;;;21.98;19.88
51249;BME280;39642;47.556;18.728;2023-02-10T02:09:49;101643.28;;;21.99;20.13
51249;BME280;39642;47.556;18.728;2023-02-10T02:12:55;101637.13;;;21.98;19.96
51249;BME280;39642;47.556;18.728;2023-02-10T02:18:26;101631.88;;;21.97;19.96
51249;BME280;39642;47.556;18.728;2023-02-10T02:24:00;101631.94;;;21.95;19.97
51249;BME280;39642;47.556;18.728;2023-02-10T02:26:52;101633.69;;;21.95;19.95
51249;BME280;39642;47.556;18.728;2023-02-10T02:32:20;101624.03;;;21.94;19.92
51249;BME280;39642;47.556;18.728;2023-02-10T02:34:55;101622.28;;;21.93;19.91
51249;BME280;39642;47.556;18.728;2023-02-10T02:37:29;101623.22;;;21.92;19.97
51249;BME280;39642;47.556;18.728;2023-02-10T02:39:57;101630.31;;;21.91;19.90
51249;BME280;39642;47.556;18.728;2023-02-10T02:44:53;101624.13;;;21.91;20.05
51249;BME280;39642;47.556;18.728;2023-02-10T03:01:20;101626.84;;;21.89;19.97
51249;BME280;39642;47.556;18.728;2023-02-10T03:03:52;101627.69;;;21.90;19.91
51249;BME280;39642;47.556;18.728;2023-02-10T03:06:19;101624.19;;;21.89;19.86
51249;BME280;39642;47.556;18.728;2023-02-10T03:08:45;101622.41;;;21.90;19.82
51249;BME280;39642;47.556;18.728;2023-02-10T03:11:11;101625.00;;;21.91;20.24
51249;BME280;39642;47.556;18.728;2023-02-10T03:13:37;101616.13;;;21.92;19.93
51249;BME280;39642;47.556;18.728;2023-02-10T03:16:03;101620.50;;;21.93;20.00
51249;BME280;39642;47.556;18.728;2023-02-10T03:18:29;101616.06;;;21.94;19.95
51249;BME280;39642;47.556;18.728;2023-02-10T03:20:55;101618.69;;;21.95;19.70
51249;BME280;39642;47.556;18.728;2023-02-10T03:23:21;101615.09;;;21.96;19.67
51249;BME280;39642;47.556;18.728;2023-02-10T03:25:47;101617.69;;;21.98;19.59
51249;BME280;39642;47.556;18.728;2023-02-10T03:28:13;101621.22;;;21.98;19.62
51249;BME280;39642;47.556;18.728;2023-02-10T03:30:39;101625.56;;;21.99;19.61
51249;BME280;39642;47.556;18.728;2023-02-10T03:33:10;101624.69;;;22.00;19.59
51249;BME280;39642;47.556;18.728;2023-02-10T03:35:36;101622.03;;;22.00;19.62
51249;BME280;39642;47.556;18.728;2023-02-10T03:38:03;101611.34;;;22.02;19.69
51249;BME280;39642;47.556;18.728;2023-02-10T03:40:29;101606.91;;;22.02;19.94
51249;BME280;39642;47.556;18.728;2023-02-10T03:42:55;101608.62;;;22.03;19.62
51249;BME280;39642;47.556;18.728;2023-02-10T03:45:21;101607.72;;;22.04;19.79
51249;BME280;39642;47.556;18.728;2023-02-10T03:47:46;101609.50;;;22.04;19.67
51249;BME280;39642;47.556;18.728;2023-02-10T03:50:12;101604.19;;;22.04;19.69
51249;BME280;39642;47.556;18.728;2023-02-10T03:52:38;101601.53;;;22.04;19.69
51249;BME280;39642;47.556;18.728;2023-02-10T03:55:05;101602.44;;;22.04;19.73
51249;BME280;39642;47.556;18.728;2023-02-10T03:57:30;101610.38;;;22.04;19.72
51249;BME280;39642;47.556;18.728;2023-02-10T03:59:56;101612.16;;;22.04;19.71
51249;BME280;39642;47.556;18.728;2023-02-10T04:02:22;101606.91;;;22.02;19.68
51249;BME280;39642;47.556;18.728;2023-02-10T04:04:48;101600.72;;;22.02;19.83
51249;BME280;39642;47.556;18.728;2023-02-10T04:07:14;101597.22;;;22.01;19.71
51249;BME280;39642;47.556;18.728;2023-02-10T04:09:40;101594.56;;;22.01;19.76
51249;BME280;39642;47.556;18.728;2023-02-10T04:12:06;101597.28;;;22.00;19.72
51249;BME280;39642;47.556;18.728;2023-02-10T04:14:32;101601.72;;;21.99;19.73
51249;BME280;39642;47.556;18.728;2023-02-10T04:16:58;101603.50;;;21.99;19.70
51249;BME280;39642;47.556;18.728;2023-02-10T04:19:24;101598.25;;;21.97;19.68
51249;BME280;39642;47.556;18.728;2023-02-10T04:21:50;101608.84;;;21.97;19.74
51249;BME280;39642;47.556;18.728;2023-02-10T04:24:16;101621.22;;;21.98;19.88
51249;BME280;39642;47.556;18.728;2023-02-10T04:26:42;101611.50;;;21.97;19.67
51249;BME280;39642;47.556;18.728;2023-02-10T04:29:08;101615.94;;;21.97;19.68
51249;BME280;39642;47.556;18.728;2023-02-10T04:31:33;101607.19;;;21.95;19.82
51249;BME280;39642;47.556;18.728;2023-02-10T04:33:59;101615.09;;;21.96;19.68
51249;BME280;39642;47.556;18.728;2023-02-10T04:36:25;101621.34;;;21.95;20.03
51249;BME280;39642;47.556;18.728;2023-02-10T04:38:51;101621.34;;;21.95;19.67
51249;BME280;39642;47.556;18.728;2023-02-10T04:41:17;101618.69;;;21.95;19.73
51249;BME280;39642;47.556;18.728;2023-02-10T04:43:43;101630.19;;;21.94;19.74
51249;BME280;39642;47.556;18.728;2023-02-10T04:46:09;101626.69;;;21.94;19.63
51249;BME280;39642;47.556;18.728;2023-02-10T04:48:35;101619.59;;;21.94;19.67
51249;BME280;39642;47.556;18.728;2023-02-10T04:51:08;101618.72;;;21.94;19.68
51249;BME280;39642;47.556;18.728;2023-02-10T04:53:35;101621.38;;;21.94;19.89
51249;BME280;39642;47.556;18.728;2023-02-10T04:56:01;101626.69;;;21.94;20.00
51249;BME280;39642;47.556;18.728;2023-02-10T04:58:27;101628.47;;;21.93;19.88
51249;BME280;39642;47.556;18.728;2023-02-10T05:00:54;101629.38;;;21.92;19.62
51249;BME280;39642;47.556;18.728;2023-02-10T05:03:21;101623.16;;;21.93;19.63
51249;BME280;39642;47.556;18.728;2023-02-10T05:05:46;101635.53;;;21.93;19.75
51249;BME280;39642;47.556;18.728;2023-02-10T05:08:12;101632.88;;;21.93;19.64
51249;BME280;39642;47.556;18.728;2023-02-10T05:10:38;101645.28;;;21.92;20.25
51249;BME280;39642;47.556;18.728;2023-02-10T05:13:04;101643.56;;;21.91;19.61
51249;BME280;39642;47.556;18.728;2023-02-10T05:15:30;101648.88;;;21.91;19.63
51249;BME280;39642;47.556;18.728;2023-02-10T05:17:56;101640.03;;;21.91;19.65
51249;BME280;39642;47.556;18.728;2023-02-10T05:20:22;101646.22;;;21.91;21.26
51249;BME280;39642;47.556;18.728;2023-02-10T05:22:48;101647.97;;;21.91;19.78
51249;BME280;39642;47.556;18.728;2023-02-10T05:25:14;101645.34;;;21.91;19.65
51249;BME280;39642;47.556;18.728;2023-02-10T05:27:40;101649.78;;;21.90;19.63
51249;BME280;39642;47.556;18.728;2023-02-10T05:30:06;101644.47;;;21.90;19.77
51249;BME280;39642;47.556;18.728;2023-02-10T05:32:34;101642.69;;;21.91;19.68
51249;BME280;39642;47.556;18.728;2023-02-10T05:35:00;101635.62;;;21.91;20.21
51249;BME280;39642;47.556;18.728;2023-02-10T05:37:26;101640.03;;;21.91;20.25
51249;BME280;39642;47.556;18.728;2023-02-10T05:39:52;101645.34;;;21.91;19.75
51249;BME280;39642;47.556;18.728;2023-02-10T05:42:18;101645.41;;;21.89;20.12
51249;BME280;39642;47.556;18.728;2023-02-10T05:44:44;101642.69;;;21.91;20.01
51249;BME280;39642;47.556;18.728;2023-02-10T05:47:09;101643.63;;;21.90;20.32
51249;BME280;39642;47.556;18.728;2023-02-10T05:49:35;101641.78;;;21.92;24.13
51249;BME280;39642;47.556;18.728;2023-02-10T05:52:01;101645.25;;;21.94;24.14
51249;BME280;39642;47.556;18.728;2023-02-10T05:54:28;101644.28;;;21.96;22.57
51249;BME280;39642;47.556;18.728;2023-02-10T05:56:54;101641.50;;;21.99;23.47
51249;BME280;39642;47.556;18.728;2023-02-10T05:59:20;101643.28;;;21.99;21.11
51249;BME280;39642;47.556;18.728;2023-02-10T06:01:46;101640.63;;;21.99;20.43
51249;BME280;39642;47.556;18.728;2023-02-10T06:04:12;101652.19;;;21.98;20.27
51249;BME280;39642;47.556;18.728;2023-02-10T06:06:38;101658.34;;;21.98;20.46
51249;BME280;39642;47.556;18.728;2023-02-10T06:09:04;101666.25;;;22.00;20.65
51249;BME280;39642;47.556;18.728;2023-02-10T06:11:30;101672.41;;;22.00;20.68
51249;BME280;39642;47.556;18.728;2023-02-10T06:13:56;101675.94;;;22.01;21.23
51249;BME280;39642;47.556;18.728;2023-02-10T06:16:22;101683.03;;;22.00;21.50
51249;BME280;39642;47.556;18.728;2023-02-10T06:18:48;101681.28;;;21.99;24.02
51249;BME280;39642;47.556;18.728;2023-02-10T06:21:15;101677.78;;;21.99;23.87
51249;BME280;39642;47.556;18.728;2023-02-10T06:23:42;101682.09;;;22.01;24.76
51249;BME280;39642;47.556;18.728;2023-02-10T06:26:08;101687.37;;;22.03;25.11
51249;BME280;39642;47.556;18.728;2023-02-10T06:28:34;101686.38;;;22.06;23.19
51249;BME280;39642;47.556;18.728;2023-02-10T06:31:00;101681.06;;;22.06;24.51
51249;BME280;39642;47.556;18.728;2023-02-10T06:33:26;101675.81;;;22.04;23.45
51249;BME280;39642;47.556;18.728;2023-02-10T06:35:52;101686.59;;;21.99;23.12
51249;BME280;39642;47.556;18.728;2023-02-10T06:38:18;101683.25;;;21.94;23.27
51249;BME280;39642;47.556;18.728;2023-02-10T06:40:44;101675.44;;;21.90;22.42
51249;BME280;39642;47.556;18.728;2023-02-10T06:43:10;101673.84;;;21.84;22.57
51249;BME280;39642;47.556;18.728;2023-02-10T06:45:36;101688.16;;;21.80;22.42
51249;BME280;39642;47.556;18.728;2023-02-10T06:48:02;101698.16;;;21.72;21.65
51249;BME280;39642;47.556;18.728;2023-02-10T06:50:28;101706.41;;;21.62;21.27
51249;BME280;39642;47.556;18.728;2023-02-10T06:52:54;101709.53;;;21.47;21.02
51249;BME280;39642;47.556;18.728;2023-02-10T06:55:20;101711.37;;;21.45;22.38
51249;BME280;39642;47.556;18.728;2023-02-10T06:57:46;101706.19;;;21.42;20.97
51249;BME280;39642;47.556;18.728;2023-02-10T07:00:13;101709.13;;;21.31;20.77
51249;BME280;39642;47.556;18.728;2023-02-10T07:02:40;101716.41;;;21.25;20.57
51249;BME280;39642;47.556;18.728;2023-02-10T07:05:07;101708.56;;;21.21;21.46
51249;BME280;39642;47.556;18.728;2023-02-10T07:07:35;101711.16;;;21.23;19.36
51249;BME280;39642;47.556;18.728;2023-02-10T07:10:01;101704.03;;;21.25;19.82
51249;BME280;39642;47.556;18.728;2023-02-10T07:12:27;101695.88;;;21.31;20.64
51249;BME280;39642;47.556;18.728;2023-02-10T07:14:54;101705.47;;;21.35;20.90
51249;BME280;39642;47.556;18.728;2023-02-10T07:17:20;101702.59;;;21.43;20.71
51249;BME280;39642;47.556;18.728;2023-02-10T07:19:46;101697.91;;;21.53;21.38
51249;BME280;39642;47.556;18.728;2023-02-10T07:22:12;101694.13;;;21.60;21.90
51249;BME280;39642;47.556;18.728;2023-02-10T07:24:38;101695.66;;;21.67;21.10
51249;BME280;39642;47.556;18.728;2023-02-10T07:27:04;101715.03;;;21.69;21.65
51249;BME280;39642;47.556;18.728;2023-02-10T07:29:30;101716.69;;;21.72;21.33
51249;BME280;39642;47.556;18.728;2023-02-10T07:31:56;101709.53;;;21.75;21.37
51249;BME280;39642;47.556;18.728;2023-02-10T07:34:26;101713.84;;;21.78;21.43
51249;BME280;39642;47.556;18.728;2023-02-10T07:36:52;101711.13;;;21.79;21.40
51249;BME280;39642;47.556;18.728;2023-02-10T07:39:24;101712.69;;;21.87;21.69
51249;BME280;39642;47.556;18.728;2023-02-10T07:41:50;101704.47;;;21.94;22.04
51249;BME280;39642;47.556;18.728;2023-02-10T07:44:16;101713.19;;;21.98;21.85
51249;BME280;39642;47.556;18.728;2023-02-10T07:46:43;101711.34;;;22.00;21.25
51249;BME280;39642;47.556;18.728;2023-02-10T07:49:09;101714.87;;;22.00;21.66
51249;BME280;39642;47.556;18.728;2023-02-10T07:51:35;101717.53;;;22.00;22.83
51249;BME280;39642;47.556;18.728;2023-02-10T07:54:01;101726.34;;;22.01;22.90
51249;BME280;39642;47.556;18.728;2023-02-10T07:56:26;101728.87;;;22.04;23.82
51249;BME280;39642;47.556;18.728;2023-02-10T07:58:52;101743.03;;;22.04;24.07
51249;BME280;39642;47.556;18.728;2023-02-10T08:01:18;101731.47;;;22.06;23.33
51249;BME280;39642;47.556;18.728;2023-02-10T08:03:44;101730.50;;;22.08;22.56
51249;BME280;39642;47.556;18.728;2023-02-10T08:06:10;101735.94;;;22.05;22.23
51249;BME280;39642;47.556;18.728;2023-02-10T08:08:36;101740.22;;;22.09;21.97
51249;BME280;39642;47.556;18.728;2023-02-10T08:11:05;101742.75;;;22.12;21.85
51249;BME280;39642;47.556;18.728;2023-02-10T08:13:32;101732.91;;;22.16;21.73
51249;BME280;39642;47.556;18.728;2023-02-10T08:15:58;101733.78;;;22.16;21.68
51249;BME280;39642;47.556;18.728;2023-02-10T08:18:24;101743.38;;;22.20;21.55
51249;BME280;39642;47.556;18.728;2023-02-10T08:20:50;101740.62;;;22.23;21.53
51249;BME280;39642;47.556;18.728;2023-02-10T08:23:17;101733.47;;;22.26;21.48
51249;BME280;39642;47.556;18.728;2023-02-10T08:25:44;101743.25;;;22.25;21.51
51249;BME280;39642;47.556;18.728;2023-02-10T08:28:10;101738.78;;;22.26;21.37
51249;BME280;39642;47.556;18.728;2023-02-10T08:30:35;101740.59;;;22.25;21.32
51249;BME280;39642;47.556;18.728;2023-02-10T08:33:02;101745.81;;;22.27;21.31
51249;BME280;39642;47.556;18.728;2023-02-10T08:35:28;101743.06;;;22.30;21.30
51249;BME280;39642;47.556;18.728;2023-02-10T08:37:54;101737.81;;;22.28;21.38
51249;BME280;39642;47.556;18.728;2023-02-10T08:40:20;101735.13;;;22.30;21.46
51249;BME280;39642;47.556;18.728;2023-02-10T08:42:46;101729.81;;;22.30;21.68
51249;BME280;39642;47.556;18.728;2023-02-10T08:45:12;101729.00;;;22.28;21.43
51249;BME280;39642;47.556;18.728;2023-02-10T08:47:38;101738.84;;;22.24;21.98
51249;BME280;39642;47.556;18.728;2023-02-10T08:50:04;101734.47;;;22.23;22.71
51249;BME280;39642;47.556;18.728;2023-02-10T08:52:30;101730.94;;;22.22;22.16
51249;BME280;39642;47.556;18.728;2023-02-10T08:54:56;101728.22;;;22.24;22.48
51249;BME280;39642;47.556;18.728;2023-02-10T08:57:22;101722.06;;;22.23;22.99
51249;BME280;39642;47.556;18.728;2023-02-10T08:59:48;101717.50;;;22.27;24.34
51249;BME280;39642;47.556;18.728;2023-02-10T09:02:14;101737.78;;;22.30;25.55
51249;BME280;39642;47.556;18.728;2023-02-10T09:04:41;101740.06;;;22.40;27.16
51249;BME280;39642;47.556;18.728;2023-02-10T09:07:07;101741.66;;;22.44;25.79
51249;BME280;39642;47.556;18.728;2023-02-10T09:09:37;101735.34;;;22.47;25.88
51249;BME280;39642;47.556;18.728;2023-02-10T09:12:04;101737.06;;;22.50;27.06
51249;BME280;39642;47.556;18.728;2023-02-10T09:14:30;101731.63;;;22.53;27.72
51249;BME280;39642;47.556;18.728;2023-02-10T09:16:56;101728.84;;;22.56;28.13
51249;BME280;39642;47.556;18.728;2023-02-10T09:19:22;101724.31;;;22.59;27.49
51249;BME280;39642;47.556;18.728;2023-02-10T09:21:49;101732.09;;;22.64;26.97
51249;BME280;39642;47.556;18.728;2023-02-10T09:24:16;101732.91;;;22.66;27.57
51249;BME280;39642;47.556;18.728;2023-02-10T09:26:43;101740.75;;;22.69;26.77
51249;BME280;39642;47.556;18.728;2023-02-10T09:29:10;101733.59;;;22.71;27.84
51249;BME280;39642;47.556;18.728;2023-02-10T09:31:37;101740.72;;;22.71;26.90
51249;BME280;39642;47.556;18.728;2023-02-10T09:34:03;101737.41;;;22.64;24.93
51249;BME280;39642;47.556;18.728;2023-02-10T09:36:29;101737.63;;;22.58;25.92
51249;BME280;39642;47.556;18.728;2023-02-10T09:38:55;101734.31;;;22.51;25.80
51249;BME280;39642;47.556;18.728;2023-02-10T09:44:24;101745.25;;;22.43;23.91
51249;BME280;39642;47.556;18.728;2023-02-10T09:52:32;101738.63;;;22.30;23.84
51249;BME280;39642;47.556;18.728;2023-02-10T09:55:12;101738.63;;;22.30;23.56
51249;BME280;39642;47.556;18.728;2023-02-10T09:57:45;101739.56;;;22.29;23.35
51249;BME280;39642;47.556;18.728;2023-02-10T10:00:25;101737.94;;;22.25;22.90
51249;BME280;39642;47.556;18.728;2023-02-10T10:02:54;101739.97;;;22.15;22.80
51249;BME280;39642;47.556;18.728;2023-02-10T10:05:57;101741.03;;;22.11;23.30
51249;BME280;39642;47.556;18.728;2023-02-10T10:08:47;101731.28;;;22.12;22.89
51249;BME280;39642;47.556;18.728;2023-02-10T10:11:31;101735.56;;;22.16;22.82
51249;BME280;39642;47.556;18.728;2023-02-10T10:13:59;101735.37;;;22.22;22.74
51249;BME280;39642;47.556;18.728;2023-02-10T10:16:45;101733.44;;;22.27;22.72
51249;BME280;39642;47.556;18.728;2023-02-10T10:30:54;101721.34;;;22.43;22.32
51249;BME280;39642;47.556;18.728;2023-02-10T10:33:50;101711.59;;;22.44;22.37
51249;BME280;39642;47.556;18.728;2023-02-10T10:36:19;101708.94;;;22.44;23.17
51249;BME280;39642;47.556;18.728;2023-02-10T10:38:50;101693.00;;;22.44;22.67
51249;BME280;39642;47.556;18.728;2023-02-10T10:41:17;101692.16;;;22.43;22.30
51249;BME280;39642;47.556;18.728;2023-02-10T10:43:49;101687.69;;;22.44;22.51
51249;BME280;39642;47.556;18.728;2023-02-10T10:48:50;101674.56;;;22.41;23.48
51249;BME280;39642;47.556;18.728;2023-02-10T10:51:17;101674.47;;;22.42;23.35
51249;BME280;39642;47.556;18.728;2023-02-10T10:53:51;101670.16;;;22.40;24.34
51249;BME280;39642;47.556;18.728;2023-02-10T10:56:37;101669.41;;;22.36;22.52
51249;BME280;39642;47.556;18.728;2023-02-10T10:59:25;101668.69;;;22.31;23.69
51249;BME280;39642;47.556;18.728;2023-02-10T11:02:20;101675.97;;;22.26;22.51
51249;BME280;39642;47.556;18.728;2023-02-10T11:08:35;101664.28;;;22.32;22.66
51249;BME280;39642;47.556;18.728;2023-02-10T11:14:27;101661.53;;;22.33;22.13
51249;BME280;39642;47.556;18.728;2023-02-10T11:16:57;101660.63;;;22.34;23.13
51249;BME280;39642;47.556;18.728;2023-02-10T11:19:34;101658.06;;;22.31;22.57
51249;BME280;39642;47.556;18.728;2023-02-10T11:22:00;101658.06;;;22.31;22.77
51249;BME280;39642;47.556;18.728;2023-02-10T11:24:30;101657.16;;;22.32;23.79
51249;BME280;39642;47.556;18.728;2023-02-10T11:27:06;101656.19;;;22.35;23.12
51249;BME280;39642;47.556;18.728;2023-02-10T11:29:34;101655.25;;;22.36;22.46
51249;BME280;39642;47.556;18.728;2023-02-10T11:32:01;101662.34;;;22.35;22.29
51249;BME280;39642;47.556;18.728;2023-02-10T11:34:39;101655.25;;;22.36;22.66
51249;BME280;39642;47.556;18.728;2023-02-10T11:37:20;101654.41;;;22.35;22.39
51249;BME280;39642;47.556;18.728;2023-02-10T11:39:47;101646.69;;;22.29;22.22
51249;BME280;39642;47.556;18.728;2023-02-10T11:42:32;101645.91;;;22.26;22.48
51249;BME280;39642;47.556;18.728;2023-02-10T11:45:01;101631.81;;;22.23;22.86
51249;BME280;39642;47.556;18.728;2023-02-10T11:47:30;101631.81;;;22.23;22.70
51249;BME280;39642;47.556;18.728;2023-02-10T11:49:57;101619.38;;;22.26;22.85
51249;BME280;39642;47.556;18.728;2023-02-10T11:52:27;101625.44;;;22.29;23.09
51249;BME280;39642;47.556;18.728;2023-02-10T11:54:56;101616.50;;;22.32;23.29
51249;BME280;39642;47.556;18.728;2023-02-10T11:57:49;101613.72;;;22.35;23.39
51249;BME280;39642;47.556;18.728;2023-02-10T12:01:08;101607.38;;;22.39;23.39
51249;BME280;39642;47.556;18.728;2023-02-10T12:14:02;101581.75;;;22.38;25.97
51249;BME280;39642;47.556;18.728;2023-02-10T12:19:27;101581.69;;;22.39;25.92
51249;BME280;39642;47.556;18.728;2023-02-10T12:25:11;101578.81;;;22.45;26.46
51249;BME280;39642;47.556;18.728;2023-02-10T12:36:19;101557.62;;;22.44;25.78
51249;BME280;39642;47.556;18.728;2023-02-10T12:39:00;101563.06;;;22.41;25.90
51249;BME280;39642;47.556;18.728;2023-02-10T12:41:46;101571.22;;;22.36;25.75
51249;BME280;39642;47.556;18.728;2023-02-10T12:44:22;101566.88;;;22.34;25.74
51249;BME280;39642;47.556;18.728;2023-02-10T12:47:05;101564.28;;;22.32;26.38
51249;BME280;39642;47.556;18.728;2023-02-10T12:52:26;101567.06;;;22.29;25.58
51249;BME280;39642;47.556;18.728;2023-02-10T12:55:01;101568.78;;;22.30;26.01
51249;BME280;39642;47.556;18.728;2023-02-10T12:57:33;101573.28;;;22.28;25.71
51249;BME280;39642;47.556;18.728;2023-02-10T13:00:11;101572.47;;;22.26;26.47
51249;BME280;39642;47.556;18.728;2023-02-10T13:02:50;101568.19;;;22.22;25.34
51249;BME280;39642;47.556;18.728;2023-02-10T13:05:25;101570.09;;;22.18;26.47
51249;BME280;39642;47.556;18.728;2023-02-10T13:07:55;101567.47;;;22.17;26.85
51249;BME280;39642;47.556;18.728;2023-02-10T13:13:07;101574.53;;;22.18;25.59
51249;BME280;39642;47.556;18.728;2023-02-10T13:15:45;101568.25;;;22.20;25.92
51249;BME280;39642;47.556;18.728;2023-02-10T13:18:17;101562.94;;;22.20;25.22
51249;BME280;39642;47.556;18.728;2023-02-10T13:21:09;101557.59;;;22.22;25.50
51249;BME280;39642;47.556;18.728;2023-02-10T13:23:47;101554.94;;;22.22;25.03
51249;BME280;39642;47.556;18.728;2023-02-10T13:26:25;101557.59;;;22.22;24.53
51249;BME280;39642;47.556;18.728;2023-02-10T13:29:04;101559.47;;;22.18;23.77
51249;BME280;39642;47.556;18.728;2023-02-10T13:36:40;101545.41;;;22.16;23.18
51249;BME280;39642;47.556;18.728;2023-02-10T13:39:16;101544.41;;;22.19;22.42
51249;BME280;39642;47.556;18.728;2023-02-10T13:41:45;101554.06;;;22.21;22.53
51249;BME280;39642;47.556;18.728;2023-02-10T13:44:25;101559.19;;;22.26;24.88
51249;BME280;39642;47.556;18.728;2023-02-10T13:47:23;101552.84;;;22.30;23.47
51249;BME280;39642;47.556;18.728;2023-02-10T13:49:56;101557.94;;;22.36;26.67
51249;BME280;39642;47.556;18.728;2023-02-10T13:52:26;101553.34;;;22.40;26.40
51249;BME280;39642;47.556;18.728;2023-02-10T13:54:59;101543.50;;;22.43;27.90
51249;BME280;39642;47.556;18.728;2023-02-10T13:57:29;101554.84;;;22.47;29.39
51249;BME280;39642;47.556;18.728;2023-02-10T14:00:44;101553.13;;;22.46;31.25
51249;BME280;39642;47.556;18.728;2023-02-10T14:05:39;101545.31;;;22.43;30.29
51249;BME280;39642;47.556;18.728;2023-02-10T14:08:27;101553.34;;;22.40;31.23
51249;BME280;39642;47.556;18.728;2023-02-10T14:11:02;101550.78;;;22.38;28.99
51249;BME280;39642;47.556;18.728;2023-02-10T14:13:31;101559.66;;;22.37;30.82
51249;BME280;39642;47.556;18.728;2023-02-10T14:16:04;101570.31;;;22.36;30.70
51249;BME280;39642;47.556;18.728;2023-02-10T14:18:35;101556.31;;;22.32;30.30
51249;BME280;39642;47.556;18.728;2023-02-10T14:21:08;101558.16;;;22.30;29.49
51249;BME280;39642;47.556;18.728;2023-02-10T14:23:38;101558.16;;;22.30;28.96
51249;BME280;39642;47.556;18.728;2023-02-10T14:26:12;101560.06;;;22.27;28.40
51249;BME280;39642;47.556;18.728;2023-02-10T14:28:42;101567.22;;;22.24;28.21